createdAt,value
2018-12-26T00:02:15.500Z,101771.84
2018-12-26T00:04:47.298Z,101777.80
2018-12-26T00:07:19.088Z,101782.91
2018-12-26T00:09:51.322Z,101786.99
2018-12-26T00:13:54.387Z,101789.72
2018-12-26T00:16:26.223Z,101791.89
2018-12-26T00:18:58.843Z,101788.66
2018-12-26T00:21:30.873Z,101792.38
2018-12-26T00:24:04.171Z,101786.08
2018-12-26T00:26:36.683Z,101780.80
2018-12-26T00:29:07.679Z,101780.42
2018-12-26T00:31:38.627Z,101779.77
2018-12-26T00:34:10.751Z,101770.48
2018-12-26T00:36:43.061Z,101770.48
2018-12-26T00:39:15.313Z,101772.41
2018-12-26T00:41:47.330Z,101768.47
2018-12-26T00:44:19.994Z,101780.22
2018-12-26T00:46:51.578Z,101775.79
2018-12-26T00:49:23.791Z,101783.25
2018-12-26T00:51:55.815Z,101783.25
2018-12-26T00:54:27.792Z,101777.45
2018-12-26T00:56:59.813Z,101767.20
2018-12-26T00:59:31.801Z,101776.09
2018-12-26T01:02:03.739Z,101765.84
2018-12-26T01:04:34.668Z,101763.25
2018-12-26T01:07:05.506Z,101757.30
2018-12-26T01:09:37.466Z,101761.05
2018-12-26T01:12:09.504Z,101756.95
2018-12-26T01:14:41.812Z,101751.17
2018-12-26T01:17:14.310Z,101745.72
2018-12-26T01:19:46.771Z,101740.27
2018-12-26T01:22:19.305Z,101740.27
2018-12-26T01:24:51.389Z,101738.40
2018-12-26T01:27:23.507Z,101738.40
2018-12-26T01:29:55.295Z,101747.94
2018-12-26T01:32:27.325Z,101744.36
2018-12-26T01:34:59.278Z,101745.21
2018-12-26T01:37:31.551Z,101745.72
2018-12-26T01:40:04.303Z,101748.58
2018-12-26T01:42:36.812Z,101748.58
2018-12-26T01:45:08.991Z,101752.66
2018-12-26T01:47:41.440Z,101761.34
2018-12-26T01:50:13.422Z,101767.65
2018-12-26T01:52:46.303Z,101766.80
2018-12-26T01:55:18.314Z,101770.51
2018-12-26T01:57:50.302Z,101774.25
2018-12-26T02:00:22.305Z,101768.47
2018-12-26T02:02:54.300Z,101774.77
2018-12-26T02:05:26.299Z,101775.27
2018-12-26T02:07:58.896Z,101771.84
2018-12-26T02:10:30.836Z,101774.56
2018-12-26T02:13:02.828Z,101772.82
2018-12-26T02:15:34.831Z,101764.17
2018-12-26T02:18:06.821Z,101764.31
2018-12-26T02:20:38.857Z,101764.31
2018-12-26T02:23:10.843Z,101763.80
2018-12-26T02:25:43.307Z,101768.73
2018-12-26T02:28:15.317Z,101765.33
2018-12-26T02:30:47.806Z,101770.78
2018-12-26T02:33:19.998Z,101763.11
2018-12-26T02:35:51.842Z,101769.41
2018-12-26T02:38:23.800Z,101765.84
2018-12-26T02:40:55.819Z,101768.91
2018-12-26T02:43:27.838Z,101771.63
2018-12-26T02:46:00.075Z,101769.92
2018-12-26T02:48:32.335Z,101765.84
2018-12-26T02:51:04.852Z,101764.82
2018-12-26T02:53:37.374Z,101764.31
2018-12-26T02:56:09.362Z,101766.31
2018-12-26T02:58:41.791Z,101774.02
2018-12-26T03:01:13.842Z,101776.73
2018-12-26T03:03:45.826Z,101781.67
2018-12-26T03:06:17.845Z,101779.59
2018-12-26T03:08:49.879Z,101769.21
2018-12-26T03:11:22.307Z,101773.64
2018-12-26T03:13:54.602Z,101773.80
2018-12-26T03:16:26.545Z,101778.87
2018-12-26T03:19:00.808Z,101778.87
2018-12-26T03:21:32.778Z,101770.70
2018-12-26T03:24:04.508Z,101765.91
2018-12-26T03:26:36.310Z,101764.92
2018-12-26T03:29:07.899Z,101771.02
2018-12-26T03:31:39.831Z,101773.88
2018-12-26T03:34:12.290Z,101771.66
2018-12-26T03:36:43.982Z,101759.91
2018-12-26T03:39:15.835Z,101738.64
2018-12-26T03:41:47.846Z,101741.87
2018-12-26T03:44:19.719Z,101762.30
2018-12-26T03:46:50.479Z,101752.77
2018-12-26T03:49:22.302Z,101758.20
2018-12-26T03:52:52.760Z,101741.05
2018-12-26T03:55:23.604Z,101747.45
2018-12-26T03:57:54.500Z,101738.77
2018-12-26T04:00:26.309Z,101733.33
2018-12-26T04:02:59.371Z,101740.64
2018-12-26T04:05:31.754Z,101731.11
2018-12-26T04:08:02.722Z,101734.17
2018-12-26T04:10:34.820Z,101719.20
2018-12-26T04:13:06.857Z,101736.42
2018-12-26T04:15:38.779Z,101734.69
2018-12-26T04:18:09.412Z,101736.90
2018-12-26T04:20:41.419Z,101732.81
2018-12-26T04:23:13.318Z,101739.48
2018-12-26T04:25:44.994Z,101738.27
2018-12-26T04:28:17.313Z,101738.77
2018-12-26T04:30:49.350Z,101757.32
2018-12-26T04:33:22.301Z,101773.31
2018-12-26T04:35:54.277Z,101769.37
2018-12-26T04:38:26.010Z,101763.45
2018-12-26T04:40:57.803Z,101755.75
2018-12-26T04:43:53.267Z,101757.62
2018-12-26T04:46:25.320Z,101749.11
2018-12-26T04:48:57.035Z,101734.65
2018-12-26T04:51:29.468Z,101711.13
2018-12-26T04:54:01.807Z,101711.50
2018-12-26T04:56:33.799Z,101717.09
2018-12-26T04:59:05.374Z,101717.59
2018-12-26T05:01:37.073Z,101716.38
2018-12-26T05:04:08.808Z,101719.95
2018-12-26T05:06:40.604Z,101721.47
2018-12-26T05:09:12.432Z,101718.37
2018-12-26T05:11:44.378Z,101718.37
2018-12-26T05:14:16.084Z,101727.56
2018-12-26T05:16:48.762Z,101730.80
2018-12-26T05:19:19.639Z,101738.97
2018-12-26T05:21:51.038Z,101737.23
2018-12-26T05:24:23.310Z,101724.84
2018-12-26T05:26:55.307Z,101731.99
2018-12-26T05:29:34.451Z,101736.45
2018-12-26T05:32:06.770Z,101738.45
2018-12-26T05:34:38.427Z,101737.44
2018-12-26T05:37:10.268Z,101738.53
2018-12-26T05:39:42.305Z,101748.06
2018-12-26T05:42:14.375Z,101738.87
2018-12-26T05:44:46.073Z,101741.80
2018-12-26T05:47:19.804Z,101728.05
2018-12-26T05:49:52.323Z,101727.74
2018-12-26T05:52:23.916Z,101724.00
2018-12-26T05:54:55.833Z,101713.95
2018-12-26T05:57:27.797Z,101723.35
2018-12-26T05:59:59.840Z,101730.88
2018-12-26T06:02:31.797Z,101724.06
2018-12-26T06:05:03.437Z,101716.75
2018-12-26T06:07:35.302Z,101717.60
2018-12-26T06:10:07.483Z,101718.45
2018-12-26T06:12:39.301Z,101725.13
2018-12-26T06:15:11.311Z,101728.36
2018-12-26T06:17:43.039Z,101719.81
2018-12-26T06:20:14.865Z,101721.17
2018-12-26T06:22:46.888Z,101715.05
2018-12-26T06:25:18.824Z,101715.90
2018-12-26T06:27:51.516Z,101706.88
2018-12-26T06:30:23.781Z,101707.86
2018-12-26T06:32:54.605Z,101708.88
2018-12-26T06:35:26.854Z,101705.79
2018-12-26T06:37:58.811Z,101705.79
2018-12-26T06:40:30.790Z,101702.38
2018-12-26T06:43:01.652Z,101716.48
2018-12-26T06:45:33.783Z,101707.11
2018-12-26T06:48:04.472Z,101707.11
2018-12-26T06:50:36.842Z,101718.01
2018-12-26T06:53:08.786Z,101720.87
2018-12-26T06:55:41.632Z,101716.44
2018-12-26T06:58:13.320Z,101723.76
2018-12-26T07:00:45.059Z,101722.02
2018-12-26T07:03:16.789Z,101711.30
2018-12-26T07:05:47.594Z,101718.58
2018-12-26T07:08:19.793Z,101709.32
2018-12-26T07:10:50.615Z,101709.32
2018-12-26T07:13:22.398Z,101720.42
2018-12-26T07:15:54.317Z,101720.42
2018-12-26T07:18:25.956Z,101724.64
2018-12-26T07:20:57.782Z,101718.85
2018-12-26T07:23:29.796Z,101718.17
2018-12-26T07:26:00.504Z,101720.05
2018-12-26T07:28:32.381Z,101718.68
2018-12-26T07:31:04.739Z,101725.48
2018-12-26T07:36:12.800Z,101722.84
2018-12-26T07:38:44.631Z,101719.09
2018-12-26T07:41:16.491Z,101694.83
2018-12-26T07:43:48.564Z,101694.83
2018-12-26T07:46:20.773Z,101716.78
2018-12-26T07:48:51.701Z,101713.55
2018-12-26T07:51:23.399Z,101715.28
2018-12-26T07:53:55.367Z,101719.20
2018-12-26T07:56:27.269Z,101717.50
2018-12-26T07:58:59.325Z,101714.06
2018-12-26T08:01:31.775Z,101723.45
2018-12-26T08:04:02.503Z,101735.20
2018-12-26T08:06:34.318Z,101726.52
2018-12-26T08:09:07.782Z,101717.50
2018-12-26T08:11:39.769Z,101722.94
2018-12-26T08:14:10.643Z,101724.30
2018-12-26T08:16:42.068Z,101723.59
2018-12-26T08:19:13.457Z,101720.87
2018-12-26T08:21:45.312Z,101720.87
2018-12-26T08:24:17.118Z,101716.44
2018-12-26T08:26:50.383Z,101720.52
2018-12-26T08:29:22.434Z,101717.09
2018-12-26T08:31:55.352Z,101723.39
2018-12-26T08:34:27.371Z,101720.45
2018-12-26T08:36:59.317Z,101723.18
2018-12-26T08:39:31.049Z,101724.70
2018-12-26T08:42:02.897Z,101720.77
2018-12-26T08:44:34.857Z,101727.56
2018-12-26T08:47:07.312Z,101729.06
2018-12-26T08:49:39.492Z,101729.58
2018-12-26T08:52:11.753Z,101714.39
2018-12-26T08:54:43.576Z,101714.39
2018-12-26T08:57:20.570Z,101716.91
2018-12-26T09:02:04.871Z,101714.56
2018-12-26T09:04:36.745Z,101724.39
2018-12-26T09:07:07.660Z,101724.73
2018-12-26T09:09:39.268Z,101731.03
2018-12-26T09:12:11.309Z,101731.03
2018-12-26T09:14:43.315Z,101732.90
2018-12-26T09:19:59.109Z,101732.50
2018-12-26T09:22:30.621Z,101707.64
2018-12-26T09:25:02.363Z,101728.00
2018-12-26T09:27:37.047Z,101728.00
2018-12-26T09:30:10.313Z,101730.59
2018-12-26T09:32:42.385Z,101731.23
2018-12-26T09:35:14.804Z,101738.76
2018-12-26T09:37:46.342Z,101737.74
2018-12-26T09:40:18.323Z,101734.16
2018-12-26T09:42:50.797Z,101735.02
2018-12-26T09:45:22.838Z,101725.28
2018-12-26T09:47:55.325Z,101724.64
2018-12-26T09:50:27.888Z,101720.42
2018-12-26T09:53:00.767Z,101733.35
2018-12-26T09:55:32.344Z,101733.94
2018-12-26T09:58:04.300Z,101731.72
2018-12-26T10:00:36.312Z,101735.30
2018-12-26T10:03:08.738Z,101731.41
2018-12-26T10:05:39.483Z,101731.76
2018-12-26T10:08:11.343Z,101737.20
2018-12-26T10:10:43.510Z,101733.12
2018-12-26T10:13:15.456Z,101730.77
2018-12-26T10:15:47.267Z,101725.33
2018-12-26T10:18:19.060Z,101724.95
2018-12-26T10:20:50.744Z,101724.44
2018-12-26T10:23:24.692Z,101722.09
2018-12-26T10:25:55.633Z,101726.11
2018-12-26T10:28:26.626Z,101717.09
2018-12-26T10:30:58.416Z,101704.94
2018-12-26T10:33:30.728Z,101704.94
2018-12-26T10:36:01.504Z,101712.36
2018-12-26T10:38:33.685Z,101714.36
2018-12-26T10:41:05.759Z,101691.15
2018-12-26T10:43:37.772Z,101691.15
2018-12-26T10:46:08.622Z,101707.25
2018-12-26T10:48:40.361Z,101701.09
2018-12-26T10:51:12.601Z,101701.09
2018-12-26T10:53:44.359Z,101683.59
2018-12-26T10:56:16.056Z,101683.59
2018-12-26T10:58:48.398Z,101703.81
2018-12-26T11:01:20.068Z,101699.39
2018-12-26T11:03:51.707Z,101696.66
2018-12-26T11:06:22.493Z,101694.28
2018-12-26T11:08:54.439Z,101689.31
2018-12-26T11:11:26.568Z,101686.08
2018-12-26T11:13:58.336Z,101685.44
2018-12-26T11:16:30.763Z,101677.70
2018-12-26T11:19:02.258Z,101684.92
2018-12-26T11:21:34.319Z,101677.27
2018-12-26T11:24:06.829Z,101681.69
2018-12-26T11:26:38.833Z,101681.35
2018-12-26T11:29:18.343Z,101675.53
2018-12-26T11:31:44.876Z,101669.74
2018-12-26T11:34:16.905Z,101669.74
2018-12-26T11:36:48.819Z,101672.98
2018-12-26T11:39:21.267Z,101667.53
2018-12-26T11:41:53.437Z,101665.28
2018-12-26T11:44:25.299Z,101659.50
2018-12-26T11:46:57.302Z,101656.13
2018-12-26T11:49:29.270Z,101648.95
2018-12-26T11:52:01.313Z,101645.24
2018-12-26T11:54:33.689Z,101644.22
2018-12-26T11:57:05.270Z,101642.52
2018-12-26T11:59:38.334Z,101638.95
2018-12-26T12:02:10.810Z,101647.59
2018-12-26T12:04:42.420Z,101648.30
2018-12-26T12:07:14.753Z,101646.94
2018-12-26T12:09:45.635Z,101642.52
2018-12-26T12:12:17.407Z,101646.20
2018-12-26T12:14:49.307Z,101646.20
2018-12-26T12:17:21.271Z,101657.83
2018-12-26T12:19:53.786Z,101658.20
2018-12-26T12:22:26.295Z,101657.19
2018-12-26T12:24:58.029Z,101648.67
2018-12-26T12:27:30.056Z,101657.19
2018-12-26T12:30:02.308Z,101654.77
2018-12-26T12:32:34.566Z,101656.13
2018-12-26T12:35:06.886Z,101645.38
2018-12-26T12:37:38.693Z,101645.38
2018-12-26T12:40:11.883Z,101642.14
2018-12-26T12:42:43.899Z,101636.36
2018-12-26T12:45:15.934Z,101636.66
2018-12-26T12:47:47.746Z,101647.90
2018-12-26T12:50:18.627Z,101640.23
2018-12-26T12:52:50.649Z,101625.17
2018-12-26T12:55:21.546Z,101625.17
2018-12-26T12:57:52.695Z,101634.59
2018-12-26T13:00:23.513Z,101632.89
2018-12-26T13:03:00.404Z,101625.71
2018-12-26T13:05:29.751Z,101631.84
2018-12-26T13:08:00.626Z,101631.84
2018-12-26T13:10:32.439Z,101629.25
2018-12-26T13:13:04.259Z,101635.20
2018-12-26T13:15:35.996Z,101636.06
2018-12-26T13:18:07.755Z,101635.20
2018-12-26T13:20:38.488Z,101636.56
2018-12-26T13:23:10.295Z,101635.85
2018-12-26T13:25:42.382Z,101638.58
2018-12-26T13:28:14.419Z,101635.52
2018-12-26T13:30:46.815Z,101628.33
2018-12-26T13:33:19.303Z,101630.55
2018-12-26T13:35:51.424Z,101629.70
2018-12-26T13:38:22.830Z,101628.50
2018-12-26T13:40:54.779Z,101629.35
2018-12-26T13:43:27.314Z,101631.05
2018-12-26T13:45:59.360Z,101630.72
2018-12-26T13:48:31.350Z,101631.05
2018-12-26T13:51:03.385Z,101640.28
2018-12-26T13:53:35.356Z,101634.70
2018-12-26T13:56:08.301Z,101636.26
2018-12-26T13:58:39.979Z,101632.21
2018-12-26T14:01:12.031Z,101636.02
2018-12-26T14:03:46.780Z,101640.13
2018-12-26T14:06:19.361Z,101636.77
2018-12-26T14:08:51.292Z,101638.84
2018-12-26T14:11:23.102Z,101632.74
2018-12-26T14:13:55.346Z,101630.02
2018-12-26T14:16:27.802Z,101630.50
2018-12-26T14:18:59.794Z,101636.83
2018-12-26T14:21:31.630Z,101632.23
2018-12-26T14:24:03.370Z,101632.38
2018-12-26T14:26:35.054Z,101632.38
2018-12-26T14:29:06.753Z,101645.27
2018-12-26T14:31:38.108Z,101636.90
2018-12-26T14:34:09.787Z,101641.19
2018-12-26T14:36:41.856Z,101646.30
2018-12-26T14:39:13.385Z,101640.51
2018-12-26T14:41:45.495Z,101643.03
2018-12-26T14:44:18.308Z,101646.23
2018-12-26T14:46:50.065Z,101642.31
2018-12-26T14:49:21.753Z,101632.78
2018-12-26T14:51:52.574Z,101633.63
2018-12-26T14:54:24.425Z,101618.16
2018-12-26T14:56:56.629Z,101618.16
2018-12-26T14:59:29.303Z,101640.63
2018-12-26T15:02:01.746Z,101640.63
2018-12-26T15:04:32.939Z,101638.45
2018-12-26T15:07:05.377Z,101639.10
2018-12-26T15:09:37.759Z,101641.42
2018-12-26T15:12:08.777Z,101641.59
2018-12-26T15:14:40.734Z,101647.86
2018-12-26T15:17:11.456Z,101636.05
2018-12-26T15:19:43.400Z,101627.98
2018-12-26T15:22:15.054Z,101632.17
2018-12-26T15:24:46.756Z,101632.48
2018-12-26T15:27:18.416Z,101630.47
2018-12-26T15:29:50.512Z,101625.14
2018-12-26T15:32:22.311Z,101620.11
2018-12-26T15:34:54.303Z,101627.27
2018-12-26T15:37:26.825Z,101627.08
2018-12-26T15:39:58.777Z,101626.50
2018-12-26T15:42:30.650Z,101625.01
2018-12-26T15:45:01.472Z,101471.63
2018-12-26T15:47:33.458Z,101631.35
2018-12-26T15:50:05.751Z,101634.41
2018-12-26T15:52:37.759Z,101634.30
2018-12-26T15:55:09.377Z,101629.95
2018-12-26T15:57:41.761Z,101629.13
2018-12-26T16:00:13.760Z,101633.78
2018-12-26T16:02:46.009Z,101636.31
2018-12-26T16:05:17.831Z,101632.78
2018-12-26T16:07:49.429Z,101631.07
2018-12-26T16:10:21.301Z,101625.06
2018-12-26T16:12:53.011Z,101623.27
2018-12-26T16:15:24.824Z,101624.12
2018-12-26T16:17:58.137Z,101626.59
2018-12-26T16:20:30.318Z,101629.78
2018-12-26T16:23:02.890Z,101625.66
2018-12-26T16:25:34.761Z,101629.76
2018-12-26T16:28:05.668Z,101630.44
2018-12-26T16:30:36.862Z,101642.20
2018-12-26T16:33:08.764Z,101630.38
2018-12-26T16:35:39.541Z,101631.06
2018-12-26T16:38:11.735Z,101632.00
2018-12-26T16:40:42.491Z,101632.00
2018-12-26T16:43:14.256Z,101628.80
2018-12-26T16:45:46.299Z,101633.98
2018-12-26T16:48:19.311Z,101632.83
2018-12-26T16:50:53.845Z,101626.03
2018-12-26T16:53:26.495Z,101631.62
2018-12-26T16:55:58.598Z,101633.25
2018-12-26T16:58:30.453Z,101630.70
2018-12-26T17:01:02.415Z,101630.70
2018-12-26T17:03:41.030Z,101634.34
2018-12-26T17:06:12.717Z,101637.01
2018-12-26T17:08:43.509Z,101635.67
2018-12-26T17:11:15.302Z,101641.70
2018-12-26T17:13:49.160Z,101638.11
2018-12-26T17:16:21.316Z,101638.98
2018-12-26T17:18:55.703Z,101638.86
2018-12-26T17:21:26.491Z,101634.59
2018-12-26T17:23:58.403Z,101633.75
2018-12-26T17:26:30.756Z,101633.92
2018-12-26T17:29:01.815Z,101633.56
2018-12-26T17:31:33.791Z,101636.40
2018-12-26T17:34:05.719Z,101645.03
2018-12-26T17:36:37.810Z,101649.38
2018-12-26T17:39:10.762Z,101652.84
2018-12-26T17:41:41.477Z,101657.60
2018-12-26T17:44:13.800Z,101659.03
2018-12-26T17:46:45.788Z,101658.38
2018-12-26T17:49:18.053Z,101644.63
2018-12-26T17:51:50.062Z,101662.16
2018-12-26T17:55:31.836Z,101661.32
2018-12-26T17:58:03.989Z,101661.28
2018-12-26T18:01:12.827Z,101658.48
2018-12-26T18:03:43.564Z,101661.86
2018-12-26T18:06:15.654Z,101648.07
2018-12-26T18:08:46.480Z,101658.28
2018-12-26T18:11:18.278Z,101658.28
2018-12-26T18:13:50.054Z,101655.99
2018-12-26T18:16:21.764Z,101651.38
2018-12-26T18:18:53.451Z,101661.41
2018-12-26T18:21:25.559Z,101660.80
2018-12-26T18:23:57.778Z,101651.22
2018-12-26T18:26:29.378Z,101651.22
2018-12-26T18:29:01.360Z,101654.16
2018-12-26T18:31:33.297Z,101653.14
2018-12-26T18:34:04.957Z,101659.50
2018-12-26T18:36:37.624Z,101655.73
2018-12-26T18:39:10.583Z,101656.09
2018-12-26T18:41:42.410Z,101643.39
2018-12-26T18:44:15.306Z,101643.39
2018-12-26T18:46:47.036Z,101651.59
2018-12-26T18:49:18.808Z,101657.50
2018-12-26T18:51:50.378Z,101657.27
2018-12-26T18:54:22.308Z,101656.34
2018-12-26T18:56:54.366Z,101663.59
2018-12-26T18:59:27.150Z,101665.81
2018-12-26T19:01:58.907Z,101662.23
2018-12-26T19:04:30.781Z,101661.67
2018-12-26T19:07:02.674Z,101667.51
2018-12-26T19:09:33.583Z,101665.50
2018-12-26T19:12:05.585Z,101668.59
2018-12-26T19:14:37.395Z,101674.16
2018-12-26T19:17:09.305Z,101674.16
2018-12-26T19:19:41.312Z,101674.22
2018-12-26T19:22:13.314Z,101669.70
2018-12-26T19:27:20.934Z,101663.66
2018-12-26T19:29:59.255Z,101662.91
2018-12-26T19:32:25.708Z,101670.31
2018-12-26T19:34:56.619Z,101664.83
2018-12-26T19:37:28.848Z,101653.34
2018-12-26T19:40:24.002Z,101653.34
2018-12-26T19:42:55.762Z,101664.00
2018-12-26T19:45:26.498Z,101667.55
2018-12-26T19:47:58.718Z,101671.02
2018-12-26T19:50:31.061Z,101668.41
2018-12-26T19:53:03.063Z,101671.75
2018-12-26T19:55:35.063Z,101666.02
2018-12-26T19:58:06.794Z,101665.38
2018-12-26T20:00:38.675Z,101670.31
2018-12-26T20:03:12.353Z,101657.65
2018-12-26T20:05:44.267Z,101657.65
2018-12-26T20:08:16.333Z,101664.50
2018-12-26T20:10:48.311Z,101656.91
2018-12-26T20:13:19.865Z,101655.41
2018-12-26T20:15:52.311Z,101653.60
2018-12-26T20:21:04.259Z,101654.36
2018-12-26T20:23:36.097Z,101661.83
2018-12-26T20:26:08.314Z,101663.66
2018-12-26T20:28:40.434Z,101659.86
2018-12-26T20:31:12.542Z,101660.05
2018-12-26T20:33:44.312Z,101665.58
2018-12-26T20:36:17.755Z,101659.97
2018-12-26T20:38:48.471Z,101660.48
2018-12-26T20:41:20.357Z,101661.58
2018-12-26T20:43:52.421Z,101658.19
2018-12-26T20:46:24.303Z,101655.13
2018-12-26T20:48:56.298Z,101649.12
2018-12-26T20:51:28.007Z,101642.09
2018-12-26T20:53:59.794Z,101645.85
2018-12-26T20:56:33.313Z,101650.27
2018-12-26T20:59:06.594Z,101648.90
2018-12-26T21:01:39.324Z,101642.68
2018-12-26T21:04:11.161Z,101642.68
2018-12-26T21:06:43.302Z,101639.89
2018-12-26T21:09:22.542Z,101637.81
2018-12-26T21:11:54.270Z,101641.19
2018-12-26T21:14:26.381Z,101641.13
2018-12-26T21:16:58.885Z,101642.45
2018-12-26T21:19:31.719Z,101645.48
2018-12-26T21:22:02.555Z,101646.99
2018-12-26T21:24:34.375Z,101637.69
2018-12-26T21:27:06.406Z,101637.69
2018-12-26T21:29:38.761Z,101645.88
2018-12-26T21:32:14.146Z,101647.71
2018-12-26T21:34:44.404Z,101643.73
2018-12-26T21:37:16.784Z,101648.62
2018-12-26T21:39:49.710Z,101646.03
2018-12-26T21:42:20.469Z,101645.52
2018-12-26T21:44:52.438Z,101641.38
2018-12-26T21:48:50.787Z,101644.09
2018-12-26T21:51:22.842Z,101646.25
2018-12-26T21:53:54.728Z,101653.72
2018-12-26T21:56:25.489Z,101650.80
2018-12-26T21:58:57.301Z,101650.61
2018-12-26T22:01:29.019Z,101651.45
2018-12-26T22:04:00.846Z,101654.49
2018-12-26T22:06:32.810Z,101646.65
2018-12-26T22:09:06.975Z,101646.45
2018-12-26T22:11:38.806Z,101646.97
2018-12-26T22:14:11.432Z,101650.87
2018-12-26T22:16:44.496Z,101648.66
2018-12-26T22:19:17.303Z,101646.41
2018-12-26T22:21:49.568Z,101646.07
2018-12-26T22:24:21.341Z,101647.95
2018-12-26T22:26:53.308Z,101647.95
2018-12-26T22:29:25.021Z,101649.65
2018-12-26T22:31:56.806Z,101650.67
2018-12-26T22:34:28.548Z,101640.94
2018-12-26T22:36:59.712Z,101645.03
2018-12-26T22:39:30.739Z,101641.45
2018-12-26T22:42:02.251Z,101642.63
2018-12-26T22:44:35.347Z,101638.67
2018-12-26T22:47:07.299Z,101635.23
2018-12-26T22:49:39.044Z,101637.63
2018-12-26T22:52:10.816Z,101635.22
2018-12-26T22:54:42.795Z,101637.95
2018-12-26T22:57:15.515Z,101638.75
2018-12-26T22:59:47.771Z,101632.11
2018-12-26T23:02:18.495Z,101642.64
2018-12-26T23:04:50.229Z,101640.94
2018-12-26T23:07:22.306Z,101637.17
2018-12-26T23:09:54.764Z,101641.40
2018-12-26T23:12:26.979Z,101636.46
2018-12-26T23:14:58.783Z,101633.87
2018-12-26T23:17:29.627Z,101632.17
2018-12-26T23:20:02.052Z,101616.57
2018-12-26T23:22:33.727Z,101616.57
2018-12-26T23:25:04.617Z,101628.17
2018-12-26T23:27:36.431Z,101627.98
2018-12-26T23:30:08.779Z,101627.98
2018-12-26T23:32:46.775Z,101623.52
2018-12-26T23:35:13.330Z,101627.78
2018-12-26T23:37:45.833Z,101635.25
2018-12-26T23:40:17.754Z,101626.37
2018-12-26T23:42:49.070Z,101623.30
2018-12-26T23:45:20.770Z,101617.52
2018-12-26T23:47:51.760Z,101620.72
2018-12-26T23:50:23.794Z,101620.37
2018-12-26T23:52:55.760Z,101617.14
2018-12-26T23:55:27.847Z,101611.87
2018-12-26T23:57:59.662Z,101603.19
